Time;durP1;ratioP1;P1;durP2;ratioP2;P2;SDS_P1;SDS_P2;PMS_P1;PMS_P2;Temp;Humidity;BMP_temperature;BMP_pressure;BME280_temperature;BME280_humidity;BME280_pressure;Samples;Min_cycle;Max_cycle;Signal;HPM_P1;HPM_P2
2023/01/10 00:00:09;;;;;;;1.75;0.80;;;;;;;6.04;87.33;99182.97;339858;29;1074;-90
2023/01/10 00:00:28;;;;;;;1.85;0.70;;;;;;;5.90;87.20;99194.41;340387;29;1138;-90
2023/01/10 00:00:40;;;;;;;1.15;0.50;;;;;;;5.87;87.30;99189.31;340932;29;1064;-90
2023/01/10 00:00:52;;;;;;;1.30;0.50;;;;;;;5.91;87.40;99188.34;340167;29;1153;-90
2023/01/10 00:01:06;;;;;;;1.63;0.60;;;;;;;5.91;87.40;99187.53;341852;28;1478;-90
2023/01/10 00:01:18;;;;;;;0.90;0.57;;;;;;;6.01;87.03;99189.06;342252;28;1365;-90
2023/01/10 00:01:30;;;;;;;0.88;0.52;;;;;;;6.06;86.76;99188.97;341061;28;989;-90
2023/01/10 00:01:42;;;;;;;1.23;0.60;;;;;;;6.08;87.01;99185.47;339279;29;1799;-90
2023/01/10 00:01:55;;;;;;;1.15;0.52;;;;;;;6.12;87.19;99194.00;337834;29;1932;-91
2023/01/10 00:02:07;;;;;;;1.85;0.60;;;;;;;6.15;86.53;99191.34;338214;29;1651;-90
2023/01/10 00:02:19;;;;;;;1.77;0.65;;;;;;;6.11;86.46;99193.13;338448;29;1171;-90
2023/01/10 00:02:31;;;;;;;1.40;0.63;;;;;;;6.14;86.58;99184.50;338555;29;756;-91
2023/01/10 00:02:44;;;;;;;0.95;0.60;;;;;;;6.07;86.46;99190.66;339984;29;747;-90
2023/01/10 00:02:56;;;;;;;0.70;0.60;;;;;;;6.02;86.48;99190.75;341236;29;1000;-90
2023/01/10 00:03:10;;;;;;;1.00;0.60;;;;;;;5.97;86.69;99190.84;339777;29;968;-90
2023/01/10 00:03:22;;;;;;;1.00;0.60;;;;;;;5.96;87.07;99189.16;338180;29;1772;-90
2023/01/10 00:03:34;;;;;;;0.98;0.60;;;;;;;5.95;87.15;99195.19;337363;29;764;-90
2023/01/10 00:03:46;;;;;;;1.77;0.60;;;;;;;5.96;86.83;99194.31;338660;29;755;-90
2023/01/10 00:03:58;;;;;;;2.30;0.60;;;;;;;5.92;87.44;99194.38;338443;29;1140;-90
2023/01/10 00:04:10;;;;;;;2.40;0.60;;;;;;;5.97;87.69;99198.56;339828;29;1566;-90
2023/01/10 00:04:25;;;;;;;2.22;0.60;;;;;;;5.98;87.41;99195.13;339625;29;1087;-90
2023/01/10 00:04:37;;;;;;;1.95;0.60;;;;;;;6.04;87.20;99193.28;339519;29;1737;-91
2023/01/10 00:04:49;;;;;;;1.20;0.60;;;;;;;6.06;86.95;99194.13;339676;29;1250;-90
2023/01/10 00:05:01;;;;;;;1.20;0.60;;;;;;;5.98;87.32;99200.28;340739;29;1748;-88
2023/01/10 00:05:13;;;;;;;0.98;0.52;;;;;;;6.02;87.19;99195.06;339849;29;986;-88
2023/01/10 00:05:25;;;;;;;0.75;0.57;;;;;;;5.98;87.06;99194.28;341074;28;1493;-88
2023/01/10 00:05:39;;;;;;;0.70;0.50;;;;;;;6.04;86.71;99193.28;339173;29;1597;-88
2023/01/10 00:05:51;;;;;;;0.73;0.60;;;;;;;5.98;86.58;99200.28;339991;29;1488;-87
2023/01/10 00:06:03;;;;;;;0.90;0.60;;;;;;;5.98;87.12;99194.28;338321;29;1750;-91
2023/01/10 00:06:15;;;;;;;0.98;0.60;;;;;;;5.93;87.02;99193.50;338223;29;1619;-90
2023/01/10 00:06:27;;;;;;;0.90;0.50;;;;;;;6.00;87.22;99202.84;338722;29;934;-91
2023/01/10 00:06:39;;;;;;;0.93;0.52;;;;;;;6.05;86.91;99201.00;338718;29;752;-90
2023/01/10 00:06:51;;;;;;;1.10;0.60;;;;;;;6.08;86.82;99200.09;338772;29;775;-91
2023/01/10 00:07:03;;;;;;;1.60;0.60;;;;;;;6.08;86.67;99195.78;339324;28;1593;-91
2023/01/10 00:07:15;;;;;;;1.27;0.60;;;;;;;6.10;86.66;99206.09;339070;29;1570;-90
2023/01/10 00:07:27;;;;;;;1.20;0.60;;;;;;;6.06;86.34;99197.56;338821;29;1899;-89
2023/01/10 00:07:39;;;;;;;1.27;0.70;;;;;;;6.09;86.98;99201.78;339142;28;1740;-90
2023/01/10 00:07:52;;;;;;;1.90;0.70;;;;;;;6.08;86.62;99202.69;339908;29;751;-90
2023/01/10 00:08:05;;;;;;;1.75;0.70;;;;;;;6.08;86.69;99205.28;340710;28;1729;-90
2023/01/10 00:08:17;;;;;;;1.60;0.70;;;;;;;6.09;86.60;99201.78;340599;28;1607;-90
2023/01/10 00:08:29;;;;;;;2.30;0.70;;;;;;;6.09;86.70;99201.78;340270;29;1846;-90
2023/01/10 00:08:41;;;;;;;2.72;0.70;;;;;;;6.07;86.76;99206.97;340973;28;1272;-90
2023/01/10 00:08:53;;;;;;;3.25;0.70;;;;;;;6.14;86.35;99194.81;341077;29;1456;-90
2023/01/10 00:09:05;;;;;;;3.10;0.80;;;;;;;6.15;86.68;99186.19;342382;28;1858;-91
2023/01/10 00:09:17;;;;;;;1.40;0.70;;;;;;;6.22;86.34;99198.06;342320;28;1764;-88
2023/01/10 00:09:29;;;;;;;0.68;0.60;;;;;;;6.20;86.28;99205.00;342711;28;2039;-88
2023/01/10 00:09:41;;;;;;;1.20;0.60;;;;;;;6.17;85.81;99205.06;342964;28;1791;-88
2023/01/10 00:09:56;;;;;;;1.58;0.77;;;;;;;6.25;85.45;99207.47;342453;28;1061;-88
2023/01/10 00:10:09;;;;;;;1.40;0.80;;;;;;;6.23;85.88;99204.91;342131;28;1805;-88
2023/01/10 00:10:21;;;;;;;1.40;0.70;;;;;;;6.14;85.99;99210.28;343243;28;1792;-88
2023/01/10 00:10:34;;;;;;;1.23;0.70;;;;;;;6.11;86.26;99210.34;343298;28;1043;-89
2023/01/10 00:10:49;;;;;;;1.13;0.68;;;;;;;6.14;85.84;99207.72;341467;28;1551;-89
2023/01/10 00:13:22;;;;;;;2.13;0.70;;;;;;;6.12;85.75;99202.56;340853;29;1094;-89
2023/01/10 00:13:22;;;;;;;1.17;0.65;;;;;;;6.10;86.89;99214.66;343339;28;1259;-89
2023/01/10 00:13:34;;;;;;;1.20;0.70;;;;;;;6.12;86.94;99201.75;344493;28;1516;-89
2023/01/10 00:13:46;;;;;;;0.98;0.70;;;;;;;6.07;86.31;99206.13;344902;28;1479;-89
2023/01/10 00:13:58;;;;;;;1.50;0.70;;;;;;;6.15;86.48;99201.66;344128;28;840;-91
2023/01/10 00:14:13;;;;;;;2.20;0.60;;;;;;;6.25;86.59;99210.91;343167;28;913;-90
2023/01/10 00:14:27;;;;;;;1.83;0.63;;;;;;;6.22;86.22;99213.56;342456;28;1444;-91
2023/01/10 00:14:40;;;;;;;1.48;0.70;;;;;;;6.13;86.35;99213.75;342055;28;1779;-89
2023/01/10 00:14:52;;;;;;;2.08;0.75;;;;;;;6.14;86.15;99215.47;341932;28;1868;-90
2023/01/10 00:15:04;;;;;;;3.00;0.73;;;;;;;6.10;86.23;99206.09;341641;28;1413;-90
2023/01/10 00:15:16;;;;;;;3.05;0.70;;;;;;;6.11;86.55;99212.94;341750;29;1522;-89
2023/01/10 00:15:31;;;;;;;1.98;0.65;;;;;;;6.10;86.60;99209.50;341920;28;1611;-90
2023/01/10 00:15:43;;;;;;;1.95;0.80;;;;;;;6.08;86.00;99213.00;342288;28;1547;-90
2023/01/10 00:15:55;;;;;;;2.03;0.80;;;;;;;6.12;86.29;99212.91;341932;28;1628;-90
2023/01/10 00:16:08;;;;;;;1.75;0.70;;;;;;;6.14;86.14;99205.97;341934;28;1609;-89
2023/01/10 00:16:20;;;;;;;1.00;0.70;;;;;;;6.16;86.17;99216.28;342877;29;1619;-90
2023/01/10 00:16:32;;;;;;;1.05;0.60;;;;;;;6.10;86.67;99211.25;342295;28;1548;-90
2023/01/10 00:16:44;;;;;;;1.20;0.63;;;;;;;6.09;86.62;99218.13;342674;28;1659;-90
2023/01/10 00:16:56;;;;;;;1.40;0.70;;;;;;;6.10;86.42;99213.81;343782;28;1415;-89
2023/01/10 00:17:08;;;;;;;1.15;0.70;;;;;;;6.15;86.51;99211.97;342469;28;1093;-90
2023/01/10 00:17:20;;;;;;;1.20;0.80;;;;;;;6.19;86.39;99218.78;342978;29;1187;-90
2023/01/10 00:17:32;;;;;;;1.17;0.70;;;;;;;6.20;86.38;99215.31;343157;28;3055;-90
2023/01/10 00:17:44;;;;;;;0.80;0.70;;;;;;;6.20;86.62;99225.66;344295;28;861;-89
2023/01/10 00:17:56;;;;;;;0.77;0.70;;;;;;;6.30;86.20;99206.50;344603;28;1470;-89
2023/01/10 00:18:09;;;;;;;1.20;0.70;;;;;;;6.21;85.83;99217.00;344869;28;1748;-89
2023/01/10 00:18:21;;;;;;;1.48;0.68;;;;;;;6.24;86.24;99210.91;344092;28;963;-89
2023/01/10 00:18:33;;;;;;;1.33;0.65;;;;;;;6.22;85.75;99213.56;344061;28;1821;-89
2023/01/10 00:18:46;;;;;;;0.90;0.60;;;;;;;6.21;85.95;99206.69;342809;28;997;-89
2023/01/10 00:18:58;;;;;;;1.40;0.63;;;;;;;6.26;85.86;99222.06;342674;29;1033;-89
2023/01/10 00:19:10;;;;;;;1.70;0.60;;;;;;;6.22;86.35;99221.31;342786;29;1929;-89
2023/01/10 00:19:22;;;;;;;1.40;0.57;;;;;;;6.22;86.44;99218.72;345610;28;932;-89
2023/01/10 00:19:34;;;;;;;0.60;0.60;;;;;;;6.25;86.21;99213.47;343300;28;1029;-89
2023/01/10 00:19:46;;;;;;;0.90;0.70;;;;;;;6.15;85.91;99215.41;341278;28;1049;-89
2023/01/10 00:19:58;;;;;;;1.00;0.70;;;;;;;6.22;86.12;99217.84;341177;28;970;-90
2023/01/10 00:20:10;;;;;;;0.98;0.70;;;;;;;6.12;86.46;99217.22;343100;28;1720;-90
2023/01/10 00:20:22;;;;;;;1.23;0.70;;;;;;;6.12;86.53;99217.22;344334;28;1732;-90
2023/01/10 00:20:34;;;;;;;1.42;0.80;;;;;;;6.09;86.65;99217.28;342743;28;1022;-90
2023/01/10 00:20:50;;;;;;;1.40;0.90;;;;;;;6.10;87.02;99234.47;341004;28;1787;-90
2023/01/10 00:21:02;;;;;;;0.80;0.70;;;;;;;6.05;86.40;99220.81;342493;28;1548;-90
2023/01/10 00:21:15;;;;;;;1.35;0.73;;;;;;;5.94;87.15;99223.59;342767;28;1808;-90
2023/01/10 00:21:27;;;;;;;1.80;0.80;;;;;;;5.95;87.49;99220.97;343292;28;1134;-90
2023/01/10 00:21:39;;;;;;;2.03;0.90;;;;;;;5.89;87.58;99223.66;344278;28;907;-89
2023/01/10 00:21:52;;;;;;;1.73;0.80;;;;;;;5.87;88.01;99220.25;343142;28;1709;-89
2023/01/10 00:22:07;;;;;;;1.25;0.80;;;;;;;5.93;88.10;99221.88;340840;28;1526;-89
2023/01/10 00:22:23;;;;;;;1.35;0.88;;;;;;;6.00;88.10;99219.16;341145;29;1795;-90
2023/01/10 00:22:35;;;;;;;2.38;0.95;;;;;;;6.00;88.30;99218.31;341969;29;1042;-90
2023/01/10 00:22:49;;;;;;;2.55;0.95;;;;;;;5.97;87.96;99223.53;343035;29;830;-89
2023/01/10 00:23:02;;;;;;;2.17;0.90;;;;;;;6.00;88.23;99221.75;342692;29;1068;-90
2023/01/10 00:23:16;;;;;;;1.83;0.90;;;;;;;5.91;88.12;99229.63;343639;28;948;-89
2023/01/10 00:23:28;;;;;;;1.70;0.80;;;;;;;5.95;88.78;99226.13;343545;28;1760;-89
2023/01/10 00:23:42;;;;;;;1.40;0.90;;;;;;;5.95;88.48;99223.56;342760;29;1081;-90
2023/01/10 00:23:54;;;;;;;1.45;0.80;;;;;;;5.87;88.45;99219.41;342428;28;972;-91
2023/01/10 00:24:18;;;;;;;1.25;0.80;;;;;;;5.80;88.77;99224.69;342804;28;830;-90
2023/01/10 00:24:30;;;;;;;1.10;0.80;;;;;;;5.83;88.61;99216.03;345260;28;961;-90
2023/01/10 00:24:42;;;;;;;1.20;0.80;;;;;;;5.81;89.21;99225.53;344031;28;983;-90
2023/01/10 00:24:55;;;;;;;1.30;0.95;;;;;;;5.79;89.33;99225.59;342748;29;947;-91
2023/01/10 00:25:07;;;;;;;2.10;0.90;;;;;;;5.80;89.14;99227.28;341177;29;1834;-89
2023/01/10 00:25:20;;;;;;;2.28;0.77;;;;;;;5.74;89.38;99231.72;339268;29;1910;-88
2023/01/10 00:25:33;;;;;;;1.90;0.82;;;;;;;5.73;89.68;99222.28;339438;29;1591;-88
2023/01/10 00:25:45;;;;;;;1.52;1.00;;;;;;;5.71;89.71;99221.44;338012;29;1357;-88
2023/01/10 00:25:58;;;;;;;1.77;1.00;;;;;;;5.71;90.24;99224.88;339917;29;895;-87
2023/01/10 00:26:10;;;;;;;1.13;0.82;;;;;;;5.69;90.31;99225.78;336846;29;1674;-88
2023/01/10 00:26:22;;;;;;;1.20;0.88;;;;;;;5.73;90.45;99220.53;337742;29;1165;-90
2023/01/10 00:26:34;;;;;;;1.70;0.90;;;;;;;5.77;89.88;99232.47;338750;29;731;-91
2023/01/10 00:26:52;;;;;;;1.90;1.00;;;;;;;5.72;90.21;99233.47;339837;29;897;-91
2023/01/10 00:27:03;;;;;;;2.08;1.00;;;;;;;5.69;90.50;99228.38;341168;29;937;-90
2023/01/10 00:27:23;;;;;;;1.95;0.90;;;;;;;5.71;90.32;99234.34;339987;29;1423;-90
2023/01/10 00:27:35;;;;;;;1.23;0.90;;;;;;;5.74;90.23;99236.88;339950;29;874;-88
2023/01/10 00:28:03;;;;;;;1.15;0.88;;;;;;;5.67;90.38;99230.13;339961;29;869;-88
2023/01/10 00:28:18;;;;;;;1.50;0.80;;;;;;;5.66;90.12;99229.28;340054;29;1082;-89
2023/01/10 00:28:33;;;;;;;1.88;0.93;;;;;;;5.64;90.47;99235.34;342396;28;995;-89
2023/01/10 00:28:45;;;;;;;2.53;1.10;;;;;;;5.67;90.76;99230.97;341017;28;1028;-89
2023/01/10 00:28:57;;;;;;;2.15;1.20;;;;;;;5.75;90.83;99225.66;340601;29;1071;-89
2023/01/10 00:29:09;;;;;;;3.33;1.27;;;;;;;5.83;90.46;99231.53;341362;29;1973;-89
2023/01/10 00:29:32;;;;;;;3.55;1.20;;;;;;;5.84;89.90;99233.22;340502;29;1185;-89
2023/01/10 00:29:45;;;;;;;2.38;1.10;;;;;;;5.87;90.20;99237.47;339674;29;1106;-90
2023/01/10 00:30:05;;;;;;;3.53;1.02;;;;;;;5.91;90.73;99229.63;337443;29;1083;-89
2023/01/10 00:30:18;;;;;;;2.97;1.00;;;;;;;5.94;89.91;99237.31;338729;29;859;-90
2023/01/10 00:30:32;;;;;;;1.70;0.90;;;;;;;5.93;89.58;99238.19;338627;29;1079;-88
2023/01/10 00:30:59;;;;;;;1.27;0.85;;;;;;;5.98;89.65;99231.25;337399;29;1016;-89
2023/01/10 00:31:12;;;;;;;2.35;0.90;;;;;;;5.96;89.57;99235.59;336251;29;1077;-91
2023/01/10 00:31:24;;;;;;;1.98;0.90;;;;;;;5.91;89.57;99234.78;338652;29;1130;-90
2023/01/10 00:31:36;;;;;;;1.88;0.88;;;;;;;5.94;89.30;99229.59;339064;29;1847;-89
2023/01/10 00:31:48;;;;;;;1.95;0.93;;;;;;;5.96;89.57;99243.34;340996;28;1766;-90
2023/01/10 00:32:00;;;;;;;1.38;0.90;;;;;;;6.00;89.70;99238.97;342219;28;1822;-89
2023/01/10 00:32:12;;;;;;;1.40;0.90;;;;;;;6.05;89.80;99246.59;342387;28;1508;-90
2023/01/10 00:32:24;;;;;;;1.02;0.80;;;;;;;6.06;88.84;99240.56;342566;28;1059;-90
2023/01/10 00:32:36;;;;;;;1.10;0.90;;;;;;;6.09;89.40;99232.75;340629;28;1643;-90
2023/01/10 00:32:48;;;;;;;0.95;0.90;;;;;;;6.08;88.91;99238.81;340610;28;1834;-90
2023/01/10 00:33:01;;;;;;;1.10;0.80;;;;;;;6.06;88.95;99238.00;340639;29;1513;-90
2023/01/10 00:33:18;;;;;;;1.15;0.80;;;;;;;5.96;88.90;99243.34;341245;29;959;-89
2023/01/10 00:33:31;;;;;;;1.63;0.90;;;;;;;5.94;88.86;99233.91;342609;28;946;-89
2023/01/10 00:33:44;;;;;;;1.88;1.10;;;;;;;6.00;89.39;99234.66;341791;28;1620;-90
2023/01/10 00:33:56;;;;;;;1.55;1.00;;;;;;;5.96;89.33;99240.75;340720;29;1708;-90
2023/01/10 00:34:08;;;;;;;0.88;0.82;;;;;;;6.01;89.21;99240.66;339552;29;1582;-89
2023/01/10 00:34:20;;;;;;;1.33;0.80;;;;;;;6.04;88.79;99234.56;339683;29;1701;-90
2023/01/10 00:34:35;;;;;;;2.58;0.98;;;;;;;6.02;89.23;99237.19;340532;29;885;-90
2023/01/10 00:34:47;;;;;;;2.55;1.00;;;;;;;6.07;88.86;99235.34;339235;29;1566;-90
2023/01/10 00:35:00;;;;;;;1.88;1.08;;;;;;;6.08;89.03;99231.06;339917;28;1095;-89
2023/01/10 00:35:12;;;;;;;1.98;1.20;;;;;;;6.08;89.17;99236.22;341611;28;964;-90
2023/01/10 00:35:25;;;;;;;2.58;1.30;;;;;;;6.08;88.77;99236.22;343935;28;1050;-89
2023/01/10 00:35:37;;;;;;;2.38;1.20;;;;;;;6.02;88.79;99236.34;343538;28;1648;-90
2023/01/10 00:35:49;;;;;;;1.85;1.10;;;;;;;6.06;89.16;99240.56;343451;28;1906;-90
2023/01/10 00:36:04;;;;;;;1.17;1.00;;;;;;;5.99;89.18;99237.25;340490;28;1712;-90
2023/01/10 00:36:16;;;;;;;1.15;0.80;;;;;;;6.02;89.00;99231.16;341939;28;1586;-89
2023/01/10 00:36:31;;;;;;;1.40;0.90;;;;;;;6.01;89.32;99245.81;341100;29;1295;-89
2023/01/10 00:36:46;;;;;;;2.05;1.05;;;;;;;6.06;89.20;99235.41;340690;28;1760;-89
2023/01/10 00:36:58;;;;;;;1.85;0.98;;;;;;;6.09;88.77;99237.91;340307;28;1366;-90
2023/01/10 00:37:10;;;;;;;1.65;1.00;;;;;;;6.05;88.92;99237.13;339535;29;1634;-89
2023/01/10 00:37:22;;;;;;;1.35;1.10;;;;;;;6.10;88.97;99244.78;340355;28;1520;-89
2023/01/10 00:37:34;;;;;;;1.33;0.98;;;;;;;6.05;88.49;99241.44;338620;29;848;-89
2023/01/10 00:37:46;;;;;;;1.30;0.93;;;;;;;6.08;88.61;99246.56;338291;29;1534;-89
2023/01/10 00:38:04;;;;;;;1.40;1.00;;;;;;;6.09;88.41;99248.25;340440;28;2169;-90
2023/01/10 00:38:16;;;;;;;1.80;1.13;;;;;;;6.02;88.89;99236.34;340614;28;1461;-89
2023/01/10 00:38:29;;;;;;;1.83;1.20;;;;;;;6.00;88.66;99244.13;339344;29;1680;-90
2023/01/10 00:38:41;;;;;;;1.85;1.20;;;;;;;6.05;88.64;99246.59;338516;29;1019;-90
2023/01/10 00:38:53;;;;;;;2.03;1.20;;;;;;;6.06;88.81;99245.75;336887;29;1535;-90
2023/01/10 00:39:06;;;;;;;2.58;1.20;;;;;;;6.07;89.00;99244.84;337840;29;1776;-90
2023/01/10 00:39:19;;;;;;;2.47;1.20;;;;;;;6.08;88.83;99252.56;339769;29;1803;-89
2023/01/10 00:39:31;;;;;;;1.48;1.08;;;;;;;6.08;88.89;99247.41;339140;29;1553;-90
2023/01/10 00:39:43;;;;;;;1.40;1.05;;;;;;;6.11;88.99;99249.06;339888;29;881;-90
2023/01/10 00:39:55;;;;;;;1.40;1.00;;;;;;;6.07;88.42;99250.00;339830;29;2202;-90
2023/01/10 00:40:09;;;;;;;1.13;1.02;;;;;;;6.12;88.82;99251.63;339901;29;1838;-90
2023/01/10 00:40:21;;;;;;;1.08;0.98;;;;;;;6.12;88.70;99249.03;340980;29;1099;-90
2023/01/10 00:40:33;;;;;;;1.15;1.00;;;;;;;6.19;88.77;99249.75;340703;28;1865;-90
2023/01/10 00:40:45;;;;;;;2.58;1.08;;;;;;;6.25;88.23;99256.50;340945;29;2035;-89
2023/01/10 00:40:57;;;;;;;3.00;1.15;;;;;;;6.26;88.52;99250.44;340807;29;1856;-90
2023/01/10 00:43:55;;;;;;;2.80;1.10;;;;;;;6.27;88.00;99255.59;341249;28;1786;-90
2023/01/10 00:43:55;;;;;;;1.30;1.00;;;;;;;6.28;87.81;99269.34;343471;28;1573;-90
2023/01/10 00:44:07;;;;;;;1.52;1.05;;;;;;;6.28;88.07;99265.03;343216;28;1826;-90
2023/01/10 00:44:20;;;;;;;1.52;1.10;;;;;;;6.29;87.76;99265.88;341179;28;1523;-90
2023/01/10 00:44:32;;;;;;;1.50;1.05;;;;;;;6.33;88.13;99268.34;341463;28;1685;-89
2023/01/10 00:44:45;;;;;;;3.20;1.17;;;;;;;6.24;87.85;99272.88;340396;28;1584;-90
2023/01/10 00:44:57;;;;;;;2.90;1.10;;;;;;;6.22;87.93;99265.19;340325;28;1467;-90
2023/01/10 00:45:10;;;;;;;1.95;1.10;;;;;;;6.19;87.76;99265.22;340646;28;1633;-89
2023/01/10 00:45:23;;;;;;;1.75;1.10;;;;;;;6.17;88.37;99264.41;340589;28;1877;-90
2023/01/10 00:45:36;;;;;;;2.17;1.30;;;;;;;6.19;88.41;99267.81;340912;28;1454;-89
2023/01/10 00:45:48;;;;;;;2.25;1.30;;;;;;;6.22;88.52;99270.34;340698;29;1613;-90
2023/01/10 00:46:01;;;;;;;1.98;1.15;;;;;;;6.23;88.59;99264.28;338619;29;954;-90
2023/01/10 00:46:13;;;;;;;1.60;1.20;;;;;;;6.22;87.81;99265.19;338620;29;1511;-90
2023/01/10 00:46:26;;;;;;;2.45;1.20;;;;;;;6.26;88.30;99271.09;337859;29;1508;-89
2023/01/10 00:46:38;;;;;;;2.90;1.20;;;;;;;6.22;88.41;99270.34;337010;29;1573;-89
2023/01/10 00:46:51;;;;;;;2.88;1.20;;;;;;;6.27;88.57;99268.50;338223;29;1607;-90
2023/01/10 00:47:03;;;;;;;2.00;1.10;;;;;;;6.32;88.00;99276.16;339655;29;1736;-90
2023/01/10 00:47:15;;;;;;;2.05;1.17;;;;;;;6.29;87.94;99274.47;337163;29;977;-90
2023/01/10 00:47:27;;;;;;;1.95;1.20;;;;;;;6.24;87.99;99272.88;338875;28;1546;-90
2023/01/10 00:47:39;;;;;;;1.80;1.17;;;;;;;6.18;88.32;99279.88;338831;29;1825;-90
2023/01/10 00:47:51;;;;;;;1.40;1.05;;;;;;;6.23;88.37;99264.28;339095;29;1377;-90
2023/01/10 00:48:04;;;;;;;1.67;1.20;;;;;;;6.27;88.44;99272.81;340612;29;1459;-90
2023/01/10 00:48:16;;;;;;;2.50;1.30;;;;;;;6.27;88.00;99268.50;339596;29;1220;-90
2023/01/10 00:48:28;;;;;;;2.67;1.17;;;;;;;6.23;88.37;99272.03;340638;29;1838;-90
2023/01/10 00:48:40;;;;;;;1.98;1.00;;;;;;;6.22;88.06;99274.63;338601;29;1843;-90
2023/01/10 00:48:53;;;;;;;1.30;1.00;;;;;;;6.27;87.96;99268.50;340089;28;1663;-89
2023/01/10 00:49:07;;;;;;;1.70;1.10;;;;;;;6.29;88.01;99282.22;341151;28;1698;-90
2023/01/10 00:49:19;;;;;;;2.60;1.20;;;;;;;6.33;87.85;99277.84;341814;28;1729;-89
2023/01/10 00:49:31;;;;;;;2.67;1.27;;;;;;;6.32;88.40;99281.31;341040;28;1735;-89
2023/01/10 00:49:43;;;;;;;2.38;1.20;;;;;;;6.32;87.44;99277.00;340852;28;1748;-90
2023/01/10 00:49:55;;;;;;;1.38;1.20;;;;;;;6.39;87.93;99275.97;342155;28;1340;-90
2023/01/10 00:50:07;;;;;;;1.85;1.30;;;;;;;6.46;87.68;99273.25;339380;29;1532;-89
2023/01/10 00:50:19;;;;;;;2.20;1.35;;;;;;;6.46;87.62;99281.00;341608;29;753;-90
2023/01/10 00:50:32;;;;;;;2.25;1.20;;;;;;;6.39;87.75;99273.38;341129;29;1197;-90
2023/01/10 00:50:45;;;;;;;2.72;1.20;;;;;;;6.36;87.57;99273.47;341726;29;1018;-90
2023/01/10 00:50:57;;;;;;;2.65;1.17;;;;;;;6.36;87.58;99276.06;339894;29;2586;-90
2023/01/10 00:51:09;;;;;;;2.53;1.20;;;;;;;6.38;87.58;99279.44;342123;28;1492;-90
2023/01/10 00:51:21;;;;;;;1.98;1.15;;;;;;;6.43;87.48;99278.50;342086;28;1500;-90
2023/01/10 00:51:36;;;;;;;1.73;1.20;;;;;;;6.43;87.12;99279.34;341119;28;995;-89
2023/01/10 00:51:56;;;;;;;1.75;1.30;;;;;;;6.42;87.01;99267.34;341025;28;1616;-90
2023/01/10 00:52:09;;;;;;;1.70;1.20;;;;;;;6.44;86.79;99275.03;340360;29;1482;-90
2023/01/10 00:52:21;;;;;;;1.73;1.13;;;;;;;6.42;86.96;99274.19;340467;28;1517;-89
2023/01/10 00:52:33;;;;;;;1.70;1.20;;;;;;;6.45;86.91;99276.72;341403;29;761;-90
2023/01/10 00:52:45;;;;;;;1.33;1.20;;;;;;;6.40;87.50;99275.09;340693;29;1854;-90
2023/01/10 00:52:57;;;;;;;2.17;1.10;;;;;;;6.48;87.19;99284.41;340036;29;1699;-89
2023/01/10 00:53:09;;;;;;;2.20;1.20;;;;;;;6.46;87.42;99275.84;341688;28;1469;-89
2023/01/10 00:53:21;;;;;;;2.03;1.20;;;;;;;6.51;86.82;99271.44;341362;28;1360;-90
2023/01/10 00:53:33;;;;;;;1.73;1.15;;;;;;;6.55;87.06;99278.22;340994;28;1560;-90
2023/01/10 00:53:45;;;;;;;2.50;1.10;;;;;;;6.57;86.87;99281.63;340804;29;1656;-89
2023/01/10 00:53:58;;;;;;;2.42;1.15;;;;;;;6.54;86.94;99279.09;341185;28;1076;-90
2023/01/10 00:54:11;;;;;;;1.88;1.20;;;;;;;6.50;86.94;99285.22;342606;28;750;-89
2023/01/10 00:54:23;;;;;;;1.70;1.20;;;;;;;6.61;86.19;99278.09;343776;28;1294;-90
2023/01/10 00:54:35;;;;;;;1.67;1.20;;;;;;;6.58;86.58;99273.00;342587;28;988;-89
2023/01/10 00:54:47;;;;;;;1.70;1.20;;;;;;;6.50;86.24;99280.91;340948;28;1305;-90
2023/01/10 00:54:59;;;;;;;3.00;1.20;;;;;;;6.47;86.32;99274.97;341188;28;1898;-89
2023/01/10 00:55:11;;;;;;;3.22;1.13;;;;;;;6.51;86.56;99276.59;342025;28;1557;-89
2023/01/10 00:55:23;;;;;;;2.43;1.17;;;;;;;6.55;86.97;99278.22;342294;28;1387;-90
2023/01/10 00:55:35;;;;;;;2.10;1.20;;;;;;;6.58;86.85;99280.75;342473;28;968;-89
2023/01/10 00:55:47;;;;;;;2.67;1.33;;;;;;;6.60;86.87;99282.41;342444;28;1693;-90
2023/01/10 00:56:00;;;;;;;2.40;1.20;;;;;;;6.65;86.16;99276.28;341953;28;1880;-90
2023/01/10 00:56:12;;;;;;;2.05;1.13;;;;;;;6.59;86.50;99274.69;341454;28;1535;-90
2023/01/10 00:56:24;;;;;;;1.63;1.13;;;;;;;6.52;86.63;99289.47;339263;29;1497;-90
2023/01/10 00:56:37;;;;;;;1.70;1.20;;;;;;;6.49;86.27;99279.19;339863;29;1031;-89
2023/01/10 00:56:49;;;;;;;1.48;1.20;;;;;;;6.55;86.83;99283.41;341216;28;1081;-88
2023/01/10 00:57:01;;;;;;;1.75;1.23;;;;;;;6.52;86.57;99284.31;342306;28;1539;-90
2023/01/10 00:57:13;;;;;;;1.95;1.30;;;;;;;6.52;86.75;99284.31;341553;28;1335;-89
2023/01/10 00:57:25;;;;;;;2.00;1.40;;;;;;;6.57;86.26;99279.88;341007;29;1051;-89
2023/01/10 00:57:37;;;;;;;2.35;1.30;;;;;;;6.54;86.92;99276.50;340472;28;1388;-90
2023/01/10 00:57:49;;;;;;;2.30;1.20;;;;;;;6.53;86.73;99286.00;340733;28;1077;-90
2023/01/10 00:58:02;;;;;;;2.10;1.10;;;;;;;6.51;86.85;99286.94;340807;28;1460;-89
2023/01/10 00:58:14;;;;;;;2.35;1.13;;;;;;;6.52;86.71;99275.69;338724;29;1678;-89
2023/01/10 00:58:26;;;;;;;3.05;1.35;;;;;;;6.56;86.42;99290.25;338819;29;1746;-89
2023/01/10 00:58:39;;;;;;;3.88;1.42;;;;;;;6.56;86.60;99285.06;339639;29;1570;-88
2023/01/10 00:58:51;;;;;;;3.35;1.40;;;;;;;6.52;86.20;99284.31;339841;29;775;-90
2023/01/10 00:59:04;;;;;;;3.10;1.30;;;;;;;6.54;86.62;99286.84;339636;29;1005;-90
2023/01/10 00:59:16;;;;;;;2.90;1.23;;;;;;;6.54;86.74;99285.13;337162;29;1317;-90
2023/01/10 00:59:28;;;;;;;2.45;1.23;;;;;;;6.56;86.65;99285.06;338071;29;1775;-89
2023/01/10 00:59:40;;;;;;;1.83;1.25;;;;;;;6.57;86.33;99289.38;338551;29;976;-90
2023/01/10 00:59:52;;;;;;;1.75;1.23;;;;;;;6.63;86.41;99289.22;338568;29;743;-90
2023/01/10 01:00:07;;;;;;;2.63;1.30;;;;;;;6.60;86.72;99279.00;338634;29;1194;-90
2023/01/10 01:00:20;;;;;;;2.30;1.30;;;;;;;6.66;86.41;99289.19;341073;29;1142;-89
2023/01/10 01:00:32;;;;;;;1.70;1.25;;;;;;;6.65;86.04;99279.72;340429;29;1636;-89
2023/01/10 01:00:50;;;;;;;2.00;1.20;;;;;;;6.66;86.53;99290.88;339841;29;984;-89
2023/01/10 01:01:02;;;;;;;2.20;1.30;;;;;;;6.64;86.14;99287.50;339429;29;1210;-90
2023/01/10 01:01:14;;;;;;;1.95;1.33;;;;;;;6.64;86.57;99285.78;341061;29;750;-90
2023/01/10 01:01:26;;;;;;;1.42;1.20;;;;;;;6.60;86.47;99290.16;340446;29;1540;-90
2023/01/10 01:01:38;;;;;;;1.30;1.10;;;;;;;6.58;86.09;99289.34;340339;28;1561;-89
2023/01/10 01:01:51;;;;;;;1.23;1.10;;;;;;;6.52;86.52;99288.59;339160;29;1479;-90
2023/01/10 01:02:03;;;;;;;1.85;1.30;;;;;;;6.56;86.47;99291.13;342502;28;1090;-90
2023/01/10 01:02:15;;;;;;;2.00;1.30;;;;;;;6.58;86.52;99283.34;342492;28;989;-90
2023/01/10 01:02:28;;;;;;;2.22;1.25;;;;;;;6.62;86.26;99289.25;342454;28;877;-90
2023/01/10 01:02:40;;;;;;;4.60;1.38;;;;;;;6.56;86.43;99287.66;342498;28;1082;-90
2023/01/10 01:02:52;;;;;;;4.32;1.38;;;;;;;6.57;86.61;99291.94;341118;29;996;-90
2023/01/10 01:03:05;;;;;;;4.13;1.38;;;;;;;6.57;86.51;99297.13;341215;29;742;-90
2023/01/10 01:03:20;;;;;;;1.92;1.30;;;;;;;6.56;86.01;99292.81;341919;28;1373;-90
2023/01/10 01:03:32;;;;;;;2.13;1.30;;;;;;;6.63;86.32;99299.56;340303;29;1537;-89
2023/01/10 01:03:44;;;;;;;2.55;1.30;;;;;;;6.66;86.12;99299.50;340869;29;1550;-90
2023/01/10 01:03:58;;;;;;;2.50;1.20;;;;;;;6.66;86.22;99296.94;339145;29;1470;-90
2023/01/10 01:04:10;;;;;;;1.55;1.10;;;;;;;6.59;85.81;99300.50;340843;28;1081;-89
2023/01/10 01:04:22;;;;;;;2.10;1.10;;;;;;;6.56;86.11;99298.00;342310;28;1202;-90
2023/01/10 01:04:34;;;;;;;2.42;1.00;;;;;;;6.62;86.11;99292.72;341109;29;896;-90
2023/01/10 01:04:46;;;;;;;2.40;1.10;;;;;;;6.58;86.33;99298.84;340492;29;1920;-89
2023/01/10 01:04:58;;;;;;;1.92;1.20;;;;;;;6.54;86.19;99297.16;339779;28;1680;-89
2023/01/10 01:05:10;;;;;;;2.28;1.30;;;;;;;6.52;86.29;99299.81;340016;29;746;-89
2023/01/10 01:05:22;;;;;;;2.25;1.30;;;;;;;6.48;86.79;99302.47;339285;29;1599;-89
2023/01/10 01:05:40;;;;;;;2.78;1.40;;;;;;;6.46;86.96;99299.06;339950;29;747;-89
2023/01/10 01:05:52;;;;;;;3.08;1.40;;;;;;;6.39;86.62;99303.53;339703;29;1825;-89
2023/01/10 01:06:05;;;;;;;2.63;1.23;;;;;;;6.39;86.97;99304.38;340271;29;1839;-89
2023/01/10 01:06:17;;;;;;;2.00;1.23;;;;;;;6.41;87.19;99306.94;339344;29;1700;-89
2023/01/10 01:06:31;;;;;;;2.08;1.20;;;;;;;6.42;87.54;99306.06;340700;29;1402;-90
2023/01/10 01:06:45;;;;;;;2.35;1.20;;;;;;;6.33;87.14;99309.66;341007;29;1400;-89
2023/01/10 01:07:03;;;;;;;2.63;1.45;;;;;;;6.41;87.04;99306.94;341492;28;1130;-89
2023/01/10 01:07:15;;;;;;;2.50;1.60;;;;;;;6.42;87.67;99312.94;341411;28;1549;-89
2023/01/10 01:07:27;;;;;;;2.58;1.42;;;;;;;6.47;87.35;99308.53;341485;28;874;-89
2023/01/10 01:07:39;;;;;;;2.95;1.23;;;;;;;6.47;87.12;99305.94;342360;28;896;-90